Newberry, SC (29108)

5:51 AM EDT on July 12, 2014 (GMT -0400)
Newberry (KEOE) Elev 568 ft | 34.31 °N, 81.64 °W | Change Station

Current weather conditions updated 16 minutes ago

Overcast
Overcast
72 °F
Feels Like 72 °F
N
0
Wind Variable Wind from North

Today is forecast to be Warmer than yesterday.

Today
High -- | Low -- °F
--% Chance of Precip.
Yesterday
High -- | Low -- °F
Precip. -- in
6:23 AM 8:40 PM
Full, 100% visible
Pressure 30.22 in
Visibility 4.0 miles
Clouds Overcast 2900 ft
Dew Point 72 °F
Humidity 100%
Rainfall 0.00 in
Snow Depth Not available.
UV 0 out of 12
Pollen 1.20 out of 12
Ozone Good
Flu Activity Sporadic
METAR KEOE 120935Z AUTO 00000KT 4SM BR OVC029 22/22 A3022 RMK AO2

More Conditions Fewer Conditions

Pressure 30.22 in
Visibility 4.0 miles
Clouds Overcast 2900 ft
Dew Point 72 °F
Humidity 100%
Rainfall 0.00 in
Snow Depth Not available.
UV 0 out of 12
Pollen 1.20 out of 12
Ozone Good
Flu Activity Sporadic
METAR KEOE 120935Z AUTO 00000KT 4SM BR OVC029 22/22 A3022 RMK AO2

More Conditions Fewer Conditions

10-Day Weather Forecast

Almanac

Astronomy

Jul. 12, 2014 Rise Set
Actual Time 6:23 AM EDT 8:40 PM EDT
Civil Twilight 5:55 AM EDT 9:08 PM EDT
Nautical Twilight 5:19 AM EDT 9:44 PM EDT
Astronomical Twilight 4:41 AM EDT 10:22 PM EDT
Moon 8:46 PM EDT 6:37 AM EDT
Length of Visible Light 15h 13m
Length of Day
14h 16m
Tomorrow will be 0m 58s shorter.
Full, 100% of the Moon is Illuminated
Today
Full
Jul 12
Full
Jul 18
Last Quarter
Jul 26
New
Aug 3
First Quarter

Today's Extremes

State Highs State Lows

Community

WunderPhotos

Upload Photos

1,732,746 photos uploaded!

Nearby

Air Quality

  Air Quality AQ Index Pollutant
Yesterday Good
OZONE
Current Good
OZONE
Saturday Good
OZONE

Snow Depth

Station Depth Elevation
No new snow has been reported.

Earthquake Activity

City Distance Mag. Time & Date
No recent earthquake activity has been reported nearby.
Minimum magnitude displayed is 2.5.

Coastal Water Temperatures

Place Temperature
No Stations Reporting

Nearby Weather Stations

Station Location Temp. Heat Index Dew Point Humidity Wind Precip. Elev Updated Type
Little Mountain, Little Mountain, SC 72.5 °F - 72 °F 99% SW  at  0.0 mph 0.00 in / hr 614 ft 5:51 AM EDT Rapid Fire
Stinking Creek Basin, Chapin, SC 70.4 °F - 69 °F 95% WSW  at  0.0 mph 0.00 in / hr 368 ft 5:38 AM EDT Normal
Shull Island, Gilbert Lake Murray, SC 72.3 °F - 72 °F 99% NW  at  0.0 mph - / hr 384 ft 5:44 AM EDT Normal
MARITIME , White Rock, SC 76 °F 74 °F - - ENE  at  1 mph 0.00 in / hr 354 ft 4:20 AM EDT MADIS
Walker Family Farm, Mountville, SC 68.8 °F - 67 °F 93% North  at  0.0 mph 0.00 in / hr 620 ft 5:50 AM EDT Normal
HallMark Shores, Lexington, SC 72.3 °F - 70 °F 93% ESE  at  0.0 mph 0.00 in / hr 394 ft 5:51 AM EDT Rapid Fire
RAWS WHITMIRE SC, Carlisle, SC 69 °F - 69 °F 99% NNE  at  1 mph 0.00 in / hr 509 ft 5:03 AM EDT MADIS

Show More Stations Show Fewer Stations